Time;durP1;ratioP1;P1;durP2;ratioP2;P2;SDS_P1;SDS_P2;PMS_P1;PMS_P2;Temp;Humidity;BMP_temperature;BMP_pressure;BME280_temperature;BME280_humidity;BME280_pressure;Samples;Min_cycle;Max_cycle;Signal;HPM_P1;HPM_P2
2022/11/03 00:01:07;;;;;;;11.30;10.30;;;;;;;21.78;39.16;95575.63;6026502;28;104491;-81
2022/11/03 00:04:12;;;;;;;11.47;10.47;;;;;;;21.78;39.25;95580.16;6033318;28;104204;-81
2022/11/03 00:07:21;;;;;;;11.87;10.60;;;;;;;21.77;38.83;95573.25;6021039;28;105551;-80
2022/11/03 00:10:24;;;;;;;11.47;10.40;;;;;;;21.77;38.98;95578.56;6044010;28;108678;-81
2022/11/03 00:13:28;;;;;;;11.70;10.50;;;;;;;21.78;39.26;95585.47;6042939;28;103116;-81
2022/11/03 00:16:31;;;;;;;11.63;10.43;;;;;;;21.77;39.29;95591.91;6042884;28;104073;-81
2022/11/03 00:19:34;;;;;;;10.47;9.57;;;;;;;21.76;38.84;95580.44;6019817;28;105187;-80
2022/11/03 00:22:38;;;;;;;10.60;9.70;;;;;;;21.77;38.88;95589.22;6036536;28;106907;-81
2022/11/03 00:25:42;;;;;;;11.10;10.10;;;;;;;21.73;39.11;95586.38;6044342;28;103553;-81
2022/11/03 00:28:46;;;;;;;10.60;9.70;;;;;;;21.76;38.94;95587.66;6026127;28;107155;-80
2022/11/03 00:31:49;;;;;;;10.57;9.67;;;;;;;21.75;39.04;95586.06;6021344;28;103372;-81
2022/11/03 00:34:52;;;;;;;11.30;10.30;;;;;;;21.74;39.02;95587.16;6043977;28;105556;-80
2022/11/03 00:37:57;;;;;;;10.40;9.30;;;;;;;21.74;38.75;95595.94;6040274;28;103578;-80
2022/11/03 00:41:02;;;;;;;11.33;10.23;;;;;;;21.73;38.84;95590.91;6024618;28;104869;-81
2022/11/03 00:44:06;;;;;;;10.23;9.33;;;;;;;21.74;38.80;95593.28;6025593;28;103746;-81
2022/11/03 00:47:09;;;;;;;10.37;9.47;;;;;;;21.74;39.24;95595.16;6026206;28;103768;-82
2022/11/03 00:50:13;;;;;;;10.70;9.67;;;;;;;21.72;38.64;95595.44;6024411;28;104072;-81
2022/11/03 00:53:18;;;;;;;11.53;10.53;;;;;;;21.72;39.13;95594.66;6027320;28;107123;-84
2022/11/03 00:56:22;;;;;;;10.63;9.57;;;;;;;21.73;39.33;95598.88;6043933;28;103993;-82
2022/11/03 00:59:25;;;;;;;9.07;8.33;;;;;;;21.72;39.16;95600.75;6027719;28;103491;-81
2022/11/03 01:02:28;;;;;;;10.33;9.33;;;;;;;21.73;38.87;95599.69;6029517;28;107589;-82
2022/11/03 01:08:54;;;;;;;9.07;8.27;;;;;;;21.72;38.74;95597.31;6039322;28;104032;-82
2022/11/03 01:11:59;;;;;;;10.20;9.20;;;;;;;21.70;39.00;95600.25;6040076;28;104990;-81
2022/11/03 01:15:03;;;;;;;9.57;8.70;;;;;;;21.72;38.86;95591.97;6034150;28;106326;-79
2022/11/03 01:18:06;;;;;;;9.97;9.07;;;;;;;21.72;39.07;95602.63;6030182;28;105203;-81
2022/11/03 01:21:09;;;;;;;9.63;8.60;;;;;;;21.70;38.63;95594.94;6042956;28;103649;-82
2022/11/03 01:24:15;;;;;;;9.47;8.70;;;;;;;21.68;39.10;95589.09;6022444;28;104289;-81
2022/11/03 01:27:21;;;;;;;9.73;8.90;;;;;;;21.69;39.28;95590.69;6025016;28;105240;-82
2022/11/03 01:30:24;;;;;;;10.10;9.10;;;;;;;21.70;39.02;95596.81;6032035;28;104804;-81
2022/11/03 01:33:28;;;;;;;9.03;8.13;;;;;;;21.69;38.88;95596.03;6031442;28;105849;-81
2022/11/03 01:36:31;;;;;;;8.87;8.07;;;;;;;21.70;38.86;95602.13;6029621;28;104455;-82
2022/11/03 01:39:35;;;;;;;9.37;8.50;;;;;;;21.69;39.19;95596.03;6037615;28;103677;-81
2022/11/03 01:42:38;;;;;;;9.23;8.33;;;;;;;21.67;39.10;95597.38;6023652;28;107857;-81
2022/11/03 01:45:42;;;;;;;9.83;9.03;;;;;;;21.67;38.86;95597.38;6033927;28;103892;-81
2022/11/03 01:48:49;;;;;;;9.13;8.23;;;;;;;21.67;39.07;95600.81;6041603;28;104944;-80
2022/11/03 01:51:58;;;;;;;8.40;7.60;;;;;;;21.66;38.77;95595.78;6025919;28;104002;-81
2022/11/03 01:55:05;;;;;;;9.77;8.87;;;;;;;21.66;38.87;95601.91;6025783;28;104197;-80
2022/11/03 01:58:18;;;;;;;9.07;8.20;;;;;;;21.68;39.16;95598.97;6034674;28;104223;-80
2022/11/03 02:01:22;;;;;;;9.40;8.60;;;;;;;21.68;39.02;95604.31;6016865;28;104010;-80
2022/11/03 02:04:30;;;;;;;9.00;8.10;;;;;;;21.67;38.87;95605.34;6031479;28;103691;-80
2022/11/03 02:07:38;;;;;;;9.90;9.00;;;;;;;21.62;39.09;95603.56;6039936;28;105512;-80
2022/11/03 02:10:43;;;;;;;8.57;7.87;;;;;;;21.66;38.89;95612.56;6027165;28;105851;-80
2022/11/03 02:13:46;;;;;;;8.43;7.63;;;;;;;21.66;39.23;95599.25;6030998;28;106925;-81
2022/11/03 02:16:53;;;;;;;9.00;8.20;;;;;;;21.67;38.88;95600.03;6027064;28;104231;-80
2022/11/03 02:20:00;;;;;;;8.87;8.07;;;;;;;21.64;39.04;95595.28;6033905;28;102868;-80
2022/11/03 02:23:19;;;;;;;8.13;7.33;;;;;;;21.65;39.20;95592.31;6034425;28;103670;-81
2022/11/03 02:26:24;;;;;;;8.77;7.93;;;;;;;21.67;38.93;95605.34;6027425;28;103680;-81
2022/11/03 02:29:27;;;;;;;9.47;8.20;;;;;;;21.67;39.05;95608.03;6029879;28;105132;-81
2022/11/03 02:32:39;;;;;;;8.83;8.10;;;;;;;21.64;39.15;95601.41;6046675;28;105964;-82
2022/11/03 02:35:48;;;;;;;8.53;7.70;;;;;;;21.66;38.69;95601.91;6018196;28;105797;-82
2022/11/03 02:38:57;;;;;;;8.20;7.40;;;;;;;21.64;38.81;95589.97;6046200;28;107590;-81
2022/11/03 02:42:04;;;;;;;8.47;7.70;;;;;;;21.64;39.14;95598.75;6046189;28;106005;-82
2022/11/03 02:45:10;;;;;;;8.40;7.60;;;;;;;21.63;38.71;95602.47;6046841;28;105318;-78
2022/11/03 02:48:19;;;;;;;7.80;7.10;;;;;;;21.63;38.96;95610.47;6024515;28;104770;-78
2022/11/03 02:51:23;;;;;;;8.30;7.60;;;;;;;21.65;39.08;95612.84;6047317;28;104843;-77
2022/11/03 02:54:32;;;;;;;9.07;7.03;;;;;;;21.64;38.67;95606.72;6043817;28;107253;-77
2022/11/03 02:57:43;;;;;;;8.77;7.90;;;;;;;21.65;39.05;95602.19;6031108;28;107388;-77
2022/11/03 03:00:53;;;;;;;7.87;7.10;;;;;;;21.63;38.50;95597.16;6035947;28;104464;-78
2022/11/03 03:03:59;;;;;;;7.50;6.90;;;;;;;21.63;38.61;95599.03;6044714;28;105146;-78
2022/11/03 03:07:06;;;;;;;8.00;7.30;;;;;;;21.57;38.91;95582.34;6037192;28;104349;-77
2022/11/03 03:10:14;;;;;;;8.00;7.20;;;;;;;21.63;38.69;95601.69;6025532;28;107899;-78
2022/11/03 03:13:21;;;;;;;7.60;6.90;;;;;;;21.65;39.12;95607.53;6035047;28;107836;-77
2022/11/03 03:16:32;;;;;;;8.50;7.80;;;;;;;21.63;38.87;95601.69;6041707;28;104476;-78
2022/11/03 03:19:48;;;;;;;7.60;6.90;;;;;;;21.63;38.63;95602.47;6022085;28;105871;-79
2022/11/03 03:22:57;;;;;;;7.23;6.60;;;;;;;21.59;39.00;95596.16;6027846;28;103800;-79
2022/11/03 03:26:05;;;;;;;7.67;7.00;;;;;;;21.62;39.08;95594.78;6038224;28;104187;-79
2022/11/03 03:29:14;;;;;;;8.63;6.57;;;;;;;21.59;38.84;95587.38;6024274;28;104310;-78
2022/11/03 03:32:20;;;;;;;9.70;7.30;;;;;;;21.63;38.79;95596.38;6012736;28;104515;-77
2022/11/03 03:35:27;;;;;;;7.00;6.50;;;;;;;21.61;39.07;95601.19;6030195;28;103880;-78
2022/11/03 03:38:34;;;;;;;7.33;6.63;;;;;;;21.61;39.19;95603.84;6039087;28;104862;-77
2022/11/03 03:41:39;;;;;;;8.10;7.40;;;;;;;21.60;38.85;95604.94;6044742;28;106820;-77
2022/11/03 03:44:46;;;;;;;7.60;6.90;;;;;;;21.61;39.27;95609.19;6035668;28;104738;-77
2022/11/03 03:47:49;;;;;;;7.20;6.50;;;;;;;21.61;39.06;95609.19;6038949;28;105642;-77
2022/11/03 03:51:01;;;;;;;8.03;7.33;;;;;;;21.61;38.76;95607.31;6022800;28;105249;-77
2022/11/03 03:54:04;;;;;;;8.60;7.07;;;;;;;21.60;38.79;95605.72;6042084;28;104570;-77
2022/11/03 03:57:14;;;;;;;6.97;6.33;;;;;;;21.59;38.82;95614.81;6035209;28;104398;-77
2022/11/03 04:00:19;;;;;;;7.30;6.60;;;;;;;21.59;39.28;95609.47;6025319;28;107415;-77
2022/11/03 04:03:24;;;;;;;7.50;6.90;;;;;;;21.59;38.89;95606.81;6044177;28;105025;-78
2022/11/03 04:06:27;;;;;;;7.90;7.10;;;;;;;21.58;38.98;95604.44;6032914;28;105150;-78
2022/11/03 04:09:31;;;;;;;7.10;6.50;;;;;;;21.57;39.08;95608.97;6028324;28;103890;-78
2022/11/03 04:22:51;;;;;;;8.27;7.37;;;;;;;21.58;39.40;95620.41;5995096;29;103972;-77
2022/11/03 04:25:56;;;;;;;8.73;7.60;;;;;;;21.55;39.64;95611.13;5997128;29;104723;-79
2022/11/03 04:29:02;;;;;;;10.67;8.50;;;;;;;21.45;39.16;95606.72;6021430;28;104281;-78
2022/11/03 04:32:15;;;;;;;12.57;9.80;;;;;;;21.38;38.09;95600.97;6030320;28;105756;-78
2022/11/03 04:35:20;;;;;;;15.07;11.67;;;;;;;21.34;37.38;95605.31;6028503;28;103460;-77
2022/11/03 04:38:25;;;;;;;12.33;11.00;;;;;;;21.34;37.31;95605.31;6037663;28;105066;-77
2022/11/03 04:41:33;;;;;;;11.67;9.20;;;;;;;21.34;37.14;95612.47;6030992;28;106388;-78
2022/11/03 04:44:36;;;;;;;11.40;9.27;;;;;;;21.34;36.79;95613.28;6025328;28;105462;-78
2022/11/03 04:47:40;;;;;;;11.23;9.57;;;;;;;21.24;37.14;95607.28;6027162;28;107877;-77
2022/11/03 04:50:47;;;;;;;9.67;8.70;;;;;;;21.19;36.64;95608.16;6019763;28;103737;-82
2022/11/03 04:53:54;;;;;;;10.03;7.93;;;;;;;21.20;36.74;95612.41;6012884;28;107839;-79
2022/11/03 04:56:57;;;;;;;9.90;7.53;;;;;;;21.17;35.91;95618.28;6025001;28;107812;-77
2022/11/03 05:00:00;;;;;;;9.50;6.60;;;;;;;21.12;36.10;95618.34;6036361;28;104298;-78
2022/11/03 05:03:05;;;;;;;8.43;6.90;;;;;;;21.15;36.83;95615.09;6031140;28;105980;-79
2022/11/03 05:06:14;;;;;;;13.27;7.90;;;;;;;21.25;36.50;95608.88;6039275;28;104565;-78
2022/11/03 05:09:24;;;;;;;10.93;7.40;;;;;;;21.31;36.89;95619.16;6044435;28;103860;-79
2022/11/03 05:12:29;;;;;;;10.23;7.67;;;;;;;21.41;36.26;95626.25;6028672;28;103901;-80
2022/11/03 05:15:36;;;;;;;10.43;7.63;;;;;;;21.45;37.16;95624.56;6036917;28;102944;-80
2022/11/03 05:18:44;;;;;;;7.90;7.23;;;;;;;21.48;37.73;95626.66;6039665;28;107670;-80
2022/11/03 05:21:49;;;;;;;10.83;9.17;;;;;;;21.43;37.10;95632.06;6021962;28;104009;-79
2022/11/03 05:24:56;;;;;;;10.90;9.67;;;;;;;21.11;35.92;95627.41;6042976;28;103812;-78
2022/11/03 05:27:59;;;;;;;11.33;8.20;;;;;;;21.05;35.61;95633.88;6035756;28;104690;-78
2022/11/03 05:31:19;;;;;;;11.70;8.93;;;;;;;21.05;35.50;95633.88;6043403;28;103987;-78
2022/11/03 05:34:36;;;;;;;15.87;8.10;;;;;;;21.05;35.52;95636.53;6042620;28;103732;-78
2022/11/03 05:37:42;;;;;;;9.23;8.03;;;;;;;21.06;35.54;95643.44;6034974;28;104329;-79
2022/11/03 05:40:45;;;;;;;8.70;7.80;;;;;;;21.05;35.38;95650.63;6041522;28;107620;-79
2022/11/03 05:43:56;;;;;;;15.13;8.10;;;;;;;21.03;35.76;95644.78;6043043;28;105932;-78
2022/11/03 05:47:02;;;;;;;8.83;7.40;;;;;;;21.01;35.19;95643.47;6042689;28;103632;-78
2022/11/03 05:50:23;;;;;;;9.90;7.70;;;;;;;20.98;35.50;95654.66;6035010;28;107152;-79
2022/11/03 05:53:29;;;;;;;10.83;7.30;;;;;;;20.98;35.23;95659.97;6042614;28;104009;-78
2022/11/03 05:56:35;;;;;;;8.57;6.83;;;;;;;20.99;35.29;95658.91;6042766;28;103683;-77
2022/11/03 05:59:38;;;;;;;16.10;8.13;;;;;;;20.87;35.40;95670.75;6038921;28;106351;-79
2022/11/03 06:02:43;;;;;;;10.80;7.60;;;;;;;20.90;35.39;95670.19;6037947;28;104744;-77
2022/11/03 06:05:48;;;;;;;13.30;7.83;;;;;;;21.56;34.00;95676.63;6042828;28;103710;-79
2022/11/03 06:08:52;;;;;;;11.17;7.50;;;;;;;22.21;33.11;95679.47;6042977;28;104847;-78
2022/11/03 06:11:58;;;;;;;12.70;8.23;;;;;;;22.64;32.81;95679.31;6033424;28;103504;-79
2022/11/03 06:15:01;;;;;;;11.03;7.67;;;;;;;23.11;31.76;95688.88;6046967;28;105084;-78
2022/11/03 06:18:15;;;;;;;11.50;7.57;;;;;;;22.30;33.01;95682.25;6046319;28;105364;-78
2022/11/03 06:21:24;;;;;;;8.77;6.77;;;;;;;21.71;34.03;95692.41;6046171;28;105596;-77
2022/11/03 06:24:31;;;;;;;13.20;8.00;;;;;;;21.52;34.30;95689.72;6036869;28;103601;-77
2022/11/03 06:27:35;;;;;;;12.60;7.47;;;;;;;21.54;34.81;95696.63;6046229;28;107032;-77
2022/11/03 06:30:41;;;;;;;13.37;7.43;;;;;;;21.58;34.85;95695.78;6045906;28;103702;-77
2022/11/03 06:33:44;;;;;;;9.83;7.40;;;;;;;21.62;34.60;95693.31;6041943;28;105527;-76
2022/11/03 06:36:49;;;;;;;11.13;7.90;;;;;;;21.61;34.83;95699.72;6040143;28;103682;-77
2022/11/03 06:39:58;;;;;;;11.83;8.13;;;;;;;21.68;34.87;95705.53;6045114;28;103960;-77
2022/11/03 06:43:14;;;;;;;13.40;8.57;;;;;;;21.78;35.20;95708.03;6044890;28;103729;-76
2022/11/03 06:46:21;;;;;;;9.77;8.30;;;;;;;21.84;35.05;95714.09;6036353;28;104156;-76
2022/11/03 06:49:29;;;;;;;12.17;8.20;;;;;;;21.86;34.95;95706.63;6046154;28;105494;-77
2022/11/03 06:52:37;;;;;;;10.70;8.53;;;;;;;21.92;35.28;95708.16;6045788;28;108048;-77
2022/11/03 06:55:40;;;;;;;11.63;8.13;;;;;;;21.94;34.83;95697.97;6045205;28;105109;-76
2022/11/03 06:58:47;;;;;;;14.67;11.47;;;;;;;21.90;34.86;95694.31;6036868;28;103861;-74
2022/11/03 07:01:55;;;;;;;19.07;15.30;;;;;;;21.94;35.01;95693.44;6044602;28;105407;-76
2022/11/03 07:04:59;;;;;;;12.67;11.37;;;;;;;21.96;35.48;95701.16;6045047;28;104098;-76
2022/11/03 07:08:16;;;;;;;13.57;11.30;;;;;;;21.99;35.32;95701.34;6041427;28;103719;-76
2022/11/03 07:11:22;;;;;;;10.43;9.30;;;;;;;22.02;35.35;95689.34;6045303;28;105151;-76
2022/11/03 07:14:28;;;;;;;12.93;10.10;;;;;;;22.05;35.29;95691.44;6045375;28;104076;-76
2022/11/03 07:17:31;;;;;;;14.60;11.23;;;;;;;22.07;35.45;95692.72;6046004;28;103781;-76
2022/11/03 07:20:34;;;;;;;14.50;9.60;;;;;;;22.15;35.23;95693.16;6037735;28;105268;-77
2022/11/03 07:23:40;;;;;;;14.13;10.33;;;;;;;22.14;35.36;95692.34;6044664;28;103715;-77
2022/11/03 07:26:53;;;;;;;11.67;10.47;;;;;;;22.13;35.52;95695.31;6045528;28;105468;-76
2022/11/03 07:29:59;;;;;;;11.90;10.70;;;;;;;22.14;35.73;95688.91;6045949;28;104122;-76
2022/11/03 07:33:12;;;;;;;11.57;9.67;;;;;;;22.15;36.04;95691.28;6037247;28;104090;-77
2022/11/03 07:36:19;;;;;;;10.80;9.70;;;;;;;22.18;37.09;95690.72;6045079;28;104757;-77
2022/11/03 07:39:33;;;;;;;16.40;11.13;;;;;;;22.29;36.42;95688.66;6044614;28;103619;-77
2022/11/03 07:42:36;;;;;;;17.57;15.20;;;;;;;22.23;36.03;95682.63;6036683;28;105238;-76
2022/11/03 07:45:42;;;;;;;17.53;14.70;;;;;;;22.30;36.51;95687.56;6043320;28;107566;-76
2022/11/03 07:48:47;;;;;;;16.63;13.27;;;;;;;22.32;36.44;95682.75;6044426;28;103737;-76
2022/11/03 07:51:50;;;;;;;12.60;10.37;;;;;;;22.30;36.24;95672.38;6044140;28;105647;-76
2022/11/03 07:54:56;;;;;;;12.87;11.67;;;;;;;22.33;36.78;95679.78;6034324;28;103736;-76
2022/11/03 07:58:00;;;;;;;15.53;12.67;;;;;;;22.35;36.77;95688.31;6044161;28;105207;-75
2022/11/03 08:01:16;;;;;;;15.30;12.90;;;;;;;22.35;36.56;95676.84;6043078;28;104243;-75
2022/11/03 08:04:22;;;;;;;15.63;12.87;;;;;;;22.37;36.71;95672.81;6041954;28;105183;-77
2022/11/03 08:07:26;;;;;;;16.60;14.87;;;;;;;22.38;36.50;95666.38;6039936;28;106539;-76
2022/11/03 08:10:32;;;;;;;17.93;14.00;;;;;;;22.38;36.89;95665.59;6043664;28;104332;-76
2022/11/03 08:13:35;;;;;;;15.80;13.40;;;;;;;22.36;36.37;95659.78;6044092;28;104225;-76
2022/11/03 08:16:38;;;;;;;15.07;13.23;;;;;;;22.34;36.66;95654.69;6034527;28;103936;-77
2022/11/03 08:19:43;;;;;;;15.63;12.73;;;;;;;22.41;36.49;95649.78;6043559;28;104147;-76
2022/11/03 08:22:46;;;;;;;14.87;13.40;;;;;;;22.43;36.89;95649.50;6043705;28;103478;-76
2022/11/03 08:26:11;;;;;;;16.10;14.40;;;;;;;22.47;36.58;95650.50;6043903;28;103574;-76
2022/11/03 08:29:16;;;;;;;21.47;16.50;;;;;;;22.48;36.94;95643.28;6035433;28;108166;-75
2022/11/03 08:32:19;;;;;;;18.43;16.57;;;;;;;22.50;36.73;95646.44;6043520;28;103798;-75
2022/11/03 08:35:23;;;;;;;22.70;20.10;;;;;;;22.53;37.27;95651.22;6042079;28;103704;-76
2022/11/03 08:38:29;;;;;;;29.60;26.63;;;;;;;22.49;37.08;95634.97;6040412;28;105836;-75
2022/11/03 08:41:34;;;;;;;32.77;29.93;;;;;;;22.51;37.25;95640.03;6037803;28;103988;-75
2022/11/03 08:44:37;;;;;;;33.47;30.57;;;;;;;22.48;37.08;95633.41;6043750;28;103517;-77
2022/11/03 08:47:41;;;;;;;33.77;30.87;;;;;;;22.56;36.92;95640.75;6042489;28;104276;-77
2022/11/03 08:50:44;;;;;;;31.50;27.97;;;;;;;22.55;37.38;95636.50;6035145;28;105237;-77
2022/11/03 08:53:49;;;;;;;31.57;28.60;;;;;;;22.59;36.96;95644.72;6042976;28;103899;-77
2022/11/03 08:56:54;;;;;;;32.07;28.90;;;;;;;22.57;37.23;95644.22;6043990;28;103481;-79
2022/11/03 08:59:57;;;;;;;30.57;27.80;;;;;;;22.54;37.52;95645.59;6043045;28;108451;-78
2022/11/03 09:03:01;;;;;;;31.97;28.93;;;;;;;22.54;37.44;95636.78;6033706;28;103657;-78
2022/11/03 09:06:05;;;;;;;31.43;28.70;;;;;;;22.54;37.90;95634.13;6043688;28;106749;-78
2022/11/03 09:09:08;;;;;;;29.60;26.70;;;;;;;22.51;37.62;95632.81;6043487;28;103595;-78
2022/11/03 09:12:33;;;;;;;28.67;26.17;;;;;;;22.53;38.02;95637.88;6039206;28;103912;-78
2022/11/03 09:15:36;;;;;;;26.70;24.30;;;;;;;22.54;37.58;95632.25;6038861;28;106746;-78
2022/11/03 09:18:39;;;;;;;24.43;22.20;;;;;;;22.53;37.56;95625.34;6042692;28;103786;-79
2022/11/03 09:21:42;;;;;;;25.70;23.10;;;;;;;22.58;38.00;95627.94;6043213;28;104830;-79
2022/11/03 09:24:45;;;;;;;24.50;22.07;;;;;;;22.58;37.83;95627.94;6035959;28;106583;-79
2022/11/03 09:27:50;;;;;;;22.23;20.23;;;;;;;22.60;38.29;95609.75;6043370;28;103492;-79
2022/11/03 09:30:53;;;;;;;23.10;20.70;;;;;;;22.60;38.01;95608.97;6043348;28;104883;-78
2022/11/03 09:33:56;;;;;;;21.37;19.37;;;;;;;22.58;37.79;95603.94;6042799;28;104041;-78
2022/11/03 09:37:00;;;;;;;23.03;19.37;;;;;;;22.56;37.82;95603.41;6032946;28;103507;-78
2022/11/03 09:40:03;;;;;;;22.23;19.37;;;;;;;22.60;37.64;95598.28;6043402;28;104808;-79
2022/11/03 09:43:08;;;;;;;20.37;18.13;;;;;;;22.60;37.52;95596.41;6043399;28;108306;-79
2022/11/03 09:46:13;;;;;;;21.87;19.00;;;;;;;22.61;37.94;95592.66;6044708;28;106748;-79
2022/11/03 09:49:18;;;;;;;25.50;21.67;;;;;;;22.64;37.97;95586.72;6039302;28;104207;-79
2022/11/03 09:52:23;;;;;;;28.47;25.57;;;;;;;22.68;37.96;95585.06;6048124;28;105000;-79
2022/11/03 09:55:27;;;;;;;23.07;20.63;;;;;;;22.66;37.77;95579.22;6047478;28;103536;-79
2022/11/03 09:58:33;;;;;;;21.10;19.10;;;;;;;22.67;38.24;95570.13;6038470;28;105422;-79
2022/11/03 10:01:37;;;;;;;20.50;18.40;;;;;;;22.69;37.85;95572.53;6045736;28;103699;-79
2022/11/03 10:04:40;;;;;;;20.10;18.03;;;;;;;22.69;37.76;95562.66;6046856;28;103737;-78
2022/11/03 10:07:44;;;;;;;19.30;17.33;;;;;;;22.66;38.08;95563.22;6046891;28;104032;-79
2022/11/03 10:10:48;;;;;;;20.30;18.40;;;;;;;22.67;37.79;95551.44;6038378;28;103237;-79
2022/11/03 10:13:56;;;;;;;21.33;19.03;;;;;;;22.64;38.17;95546.72;6046609;28;107185;-78
2022/11/03 10:17:00;;;;;;;19.60;17.50;;;;;;;22.66;37.99;95547.22;6047399;28;103949;-79
2022/11/03 10:20:11;;;;;;;18.47;16.70;;;;;;;22.67;37.78;95546.13;6046093;28;103509;-79
2022/11/03 10:23:14;;;;;;;19.57;17.27;;;;;;;22.68;38.18;95539.72;6037409;28;103846;-79
2022/11/03 10:26:19;;;;;;;18.60;16.90;;;;;;;22.65;38.26;95532.28;6036065;28;105694;-78
2022/11/03 10:29:25;;;;;;;18.43;16.67;;;;;;;22.64;38.35;95530.72;6022692;28;106376;-79
2022/11/03 10:32:32;;;;;;;19.10;17.30;;;;;;;22.65;37.75;95524.28;6018266;28;106173;-79
2022/11/03 10:35:35;;;;;;;19.77;17.73;;;;;;;22.64;38.39;95516.59;6022905;28;103873;-78
2022/11/03 10:38:38;;;;;;;18.10;16.30;;;;;;;22.64;38.18;95520.03;6022305;28;105712;-78
2022/11/03 10:41:56;;;;;;;18.13;16.23;;;;;;;22.64;37.86;95509.38;6022614;28;103970;-78
2022/11/03 10:45:16;;;;;;;17.70;16.10;;;;;;;22.63;37.94;95499.00;6013143;28;106748;-79
2022/11/03 10:48:19;;;;;;;16.67;15.07;;;;;;;22.63;37.79;95502.47;6023360;28;105980;-78
2022/11/03 10:51:22;;;;;;;17.83;16.13;;;;;;;22.63;37.89;95493.66;6021726;29;103448;-80
2022/11/03 10:54:25;;;;;;;17.33;15.50;;;;;;;22.60;38.03;95481.72;6023166;28;104301;-80
2022/11/03 10:57:28;;;;;;;16.30;14.67;;;;;;;22.60;37.67;95488.94;6014853;28;103776;-79
2022/11/03 11:00:33;;;;;;;16.60;14.93;;;;;;;22.60;37.57;95476.38;6022639;29;107884;-80
2022/11/03 11:03:42;;;;;;;16.53;14.83;;;;;;;22.59;37.47;95469.47;6023344;29;105930;-80
2022/11/03 11:06:46;;;;;;;16.30;14.57;;;;;;;22.58;37.72;95473.22;6014262;28;104134;-79
2022/11/03 11:09:49;;;;;;;15.17;12.90;;;;;;;22.55;37.63;95457.78;6022601;28;103384;-79
2022/11/03 11:13:24;;;;;;;14.90;13.37;;;;;;;22.57;37.72;95454.84;6023099;29;103866;-80
2022/11/03 11:16:50;;;;;;;14.87;13.47;;;;;;;22.55;37.90;95452.47;6023421;29;105350;-80
2022/11/03 11:20:29;;;;;;;14.37;12.97;;;;;;;22.52;38.03;95446.94;6004795;28;103981;-80
2022/11/03 11:23:51;;;;;;;15.83;14.20;;;;;;;22.52;37.68;95442.38;6022822;28;105375;-80
2022/11/03 11:26:55;;;;;;;14.13;12.63;;;;;;;22.52;37.78;95441.59;6023634;28;104108;-80
2022/11/03 11:29:58;;;;;;;15.03;13.60;;;;;;;22.48;37.97;95436.06;6013791;28;105219;-79
2022/11/03 11:33:14;;;;;;;14.87;13.47;;;;;;;22.48;38.04;95433.38;6023931;29;104920;-80
2022/11/03 11:36:23;;;;;;;16.53;12.87;;;;;;;22.47;37.55;95428.34;6022770;28;103578;-79
2022/11/03 11:39:44;;;;;;;13.80;12.40;;;;;;;22.44;37.92;95419.06;6022655;29;105580;-80
2022/11/03 11:43:26;;;;;;;13.17;11.87;;;;;;;22.44;37.68;95418.28;6013885;29;104463;-79
2022/11/03 11:46:41;;;;;;;13.63;12.40;;;;;;;22.42;37.82;95416.72;6023093;29;104476;-79
2022/11/03 11:49:46;;;;;;;13.47;12.10;;;;;;;22.39;37.84;95411.19;6022125;28;103427;-78
2022/11/03 11:52:53;;;;;;;12.20;11.10;;;;;;;22.37;37.76;95411.50;6014156;28;102875;-78
2022/11/03 11:55:58;;;;;;;13.40;12.00;;;;;;;22.34;37.72;95398.72;6020907;28;103970;-78
2022/11/03 11:59:01;;;;;;;12.30;11.13;;;;;;;22.37;37.87;95397.38;6021824;29;105083;-78
2022/11/03 12:02:15;;;;;;;12.47;11.30;;;;;;;22.38;38.24;95393.63;6021125;28;104314;-78
2022/11/03 12:05:24;;;;;;;12.73;11.53;;;;;;;22.38;38.20;95390.94;6011537;28;103691;-79
2022/11/03 12:08:30;;;;;;;11.90;10.80;;;;;;;22.38;38.12;95388.28;6022121;29;107438;-79
2022/11/03 12:11:44;;;;;;;12.23;11.03;;;;;;;22.38;38.35;95386.41;6021476;29;105168;-79
2022/11/03 12:14:49;;;;;;;12.13;11.03;;;;;;;22.36;38.53;95380.59;6013858;28;103545;-78
2022/11/03 12:17:52;;;;;;;12.40;11.23;;;;;;;22.35;38.11;95378.22;6021101;28;104991;-79
2022/11/03 12:20:57;;;;;;;11.20;10.10;;;;;;;22.35;38.00;95378.22;6020972;28;104302;-78
2022/11/03 12:24:01;;;;;;;12.77;10.87;;;;;;;22.34;38.18;95373.94;6020539;28;103970;-78
2022/11/03 12:27:18;;;;;;;10.50;9.50;;;;;;;22.33;38.39;95372.38;6011874;28;106075;-78
2022/11/03 12:30:22;;;;;;;11.73;10.63;;;;;;;22.31;38.11;95370.00;6021395;28;105000;-79
2022/11/03 12:33:26;;;;;;;12.70;10.60;;;;;;;22.32;38.10;95366.25;6020607;29;107828;-78
2022/11/03 12:36:30;;;;;;;11.97;10.63;;;;;;;22.30;37.96;95355.09;6020379;28;104094;-78
2022/11/03 12:39:34;;;;;;;11.20;9.97;;;;;;;22.28;38.13;95354.59;6011628;28;103848;-78
2022/11/03 12:42:37;;;;;;;11.07;9.97;;;;;;;22.30;38.07;95362.31;6020812;29;106780;-78
2022/11/03 12:45:41;;;;;;;10.33;9.40;;;;;;;22.28;37.72;95353.81;6020642;28;103649;-78
2022/11/03 12:48:44;;;;;;;11.13;9.03;;;;;;;22.29;37.91;95350.84;6016538;28;104856;-79
2022/11/03 12:51:48;;;;;;;10.17;9.17;;;;;;;22.26;37.79;95346.13;6019495;28;105135;-78
2022/11/03 12:54:51;;;;;;;11.00;9.83;;;;;;;22.27;37.72;95346.91;6021338;29;107093;-78
2022/11/03 12:57:55;;;;;;;10.80;9.70;;;;;;;22.24;37.71;95336.84;6018988;28;103666;-78
2022/11/03 13:00:58;;;;;;;10.00;8.80;;;;;;;22.28;37.23;95337.81;6011797;28;107766;-77
2022/11/03 13:04:05;;;;;;;8.67;7.77;;;;;;;22.27;36.96;95337.03;6020185;28;105143;-77
2022/11/03 13:07:09;;;;;;;10.60;8.80;;;;;;;22.32;37.02;95338.78;6021464;28;103742;-78
2022/11/03 13:10:12;;;;;;;9.37;8.37;;;;;;;22.32;37.03;95339.59;6020786;29;103723;-79
2022/11/03 13:13:15;;;;;;;12.53;8.43;;;;;;;22.32;36.82;95338.78;6011861;29;104377;-78
2022/11/03 13:16:19;;;;;;;8.60;7.50;;;;;;;22.30;36.92;95332.97;6020743;29;103504;-78
2022/11/03 13:19:22;;;;;;;8.47;7.50;;;;;;;22.30;37.02;95328.44;6020335;28;104210;-77
2022/11/03 13:22:26;;;;;;;9.97;8.53;;;;;;;22.31;36.78;95329.22;6020495;28;104149;-78
2022/11/03 13:25:30;;;;;;;8.93;7.73;;;;;;;22.30;36.77;95331.09;6021538;29;104735;-78
2022/11/03 13:28:33;;;;;;;8.83;7.43;;;;;;;22.31;36.44;95323.88;6023826;29;104247;-79
2022/11/03 13:31:36;;;;;;;9.60;7.70;;;;;;;22.29;36.72;95320.75;6024358;29;103705;-78
2022/11/03 13:34:39;;;;;;;8.97;8.07;;;;;;;22.29;36.59;95320.75;6014745;28;104588;-78
2022/11/03 13:37:44;;;;;;;9.27;7.40;;;;;;;22.29;36.28;95324.19;6024099;28;103705;-78
2022/11/03 13:40:47;;;;;;;9.13;8.17;;;;;;;22.26;36.62;95316.00;6024425;29;104750;-78
2022/11/03 13:43:59;;;;;;;9.57;7.40;;;;;;;22.26;36.38;95311.47;6024518;28;103726;-78
2022/11/03 13:47:03;;;;;;;9.63;7.77;;;;;;;22.25;36.54;95314.44;6016602;28;106500;-78
2022/11/03 13:50:09;;;;;;;10.93;6.93;;;;;;;22.26;36.28;95308.81;6023686;28;103677;-79
2022/11/03 13:53:18;;;;;;;9.80;7.00;;;;;;;22.24;35.83;95299.53;6024514;29;103512;-79
2022/11/03 13:56:41;;;;;;;10.77;6.73;;;;;;;22.26;35.83;95306.13;6019284;28;103774;-77
2022/11/03 14:00:06;;;;;;;9.57;6.97;;;;;;;22.24;36.13;95304.88;6021385;29;103659;-76
2022/11/03 14:03:11;;;;;;;8.80;7.50;;;;;;;22.23;35.61;95314.75;6022371;28;103681;-76
2022/11/03 14:06:35;;;;;;;9.20;6.83;;;;;;;22.22;36.06;95315.81;6030481;28;103370;-77
2022/11/03 14:09:39;;;;;;;10.17;6.93;;;;;;;22.22;35.57;95312.38;6023802;28;104386;-77
2022/11/03 14:12:42;;;;;;;10.80;8.13;;;;;;;22.20;35.72;95312.69;6030157;28;104916;-76
2022/11/03 14:15:45;;;;;;;10.77;7.10;;;;;;;22.19;35.86;95316.44;6033166;28;106416;-77
2022/11/03 14:18:49;;;;;;;10.83;6.67;;;;;;;22.18;35.58;95306.88;6046996;28;104193;-77
2022/11/03 14:21:52;;;;;;;8.47;6.80;;;;;;;22.19;35.61;95315.66;6039274;28;108252;-78
2022/11/03 14:24:57;;;;;;;8.83;5.80;;;;;;;22.16;35.57;95313.56;6047533;28;105437;-77
2022/11/03 14:28:01;;;;;;;14.27;7.07;;;;;;;22.17;35.95;95312.47;6046183;28;103732;-77
2022/11/03 14:31:07;;;;;;;11.70;7.50;;;;;;;22.14;35.81;95313.84;6037624;28;103950;-77